Time;durP1;ratioP1;P1;durP2;ratioP2;P2;SDS_P1;SDS_P2;PMS_P1;PMS_P2;Temp;Humidity;BMP_temperature;BMP_pressure;BME280_temperature;BME280_humidity;BME280_pressure;Samples;Min_cycle;Max_cycle;Signal;HPM_P1;HPM_P2
2021/04/17 00:01:14;;;;;;;8.25;3.83;;;9.10;66.50;;;;;;5013748;28;20034;-85
2021/04/17 00:03:40;;;;;;;8.57;3.50;;;9.00;66.30;;;;;;5013672;28;20018;-86
2021/04/17 00:06:06;;;;;;;6.72;3.83;;;9.00;66.40;;;;;;4979598;28;20033;-85
2021/04/17 00:08:31;;;;;;;7.60;4.25;;;9.00;67.10;;;;;;4995770;28;20034;-86
2021/04/17 00:10:57;;;;;;;6.55;3.80;;;8.90;66.80;;;;;;4995927;28;20105;-86
2021/04/17 00:13:23;;;;;;;8.20;4.30;;;8.90;67.10;;;;;;5013371;28;20508;-86
2021/04/17 00:15:49;;;;;;;7.53;4.47;;;8.90;67.20;;;;;;4980578;28;20065;-86
2021/04/17 00:18:14;;;;;;;9.32;4.10;;;8.90;67.80;;;;;;4995478;28;20034;-85
2021/04/17 00:20:40;;;;;;;7.55;4.32;;;8.80;68.10;;;;;;4987780;28;20490;-86
2021/04/17 00:23:06;;;;;;;7.57;3.63;;;8.80;67.90;;;;;;4980690;28;20061;-86
2021/04/17 00:25:31;;;;;;;7.55;3.95;;;8.80;67.70;;;;;;4956232;28;20057;-86
2021/04/17 00:27:57;;;;;;;8.70;4.07;;;8.80;67.20;;;;;;4974569;28;20035;-86
2021/04/17 00:30:23;;;;;;;8.70;3.70;;;8.70;67.70;;;;;;5003203;28;20061;-86
2021/04/17 00:32:49;;;;;;;7.30;3.90;;;8.70;67.80;;;;;;5012733;28;20189;-86
2021/04/17 00:35:15;;;;;;;7.63;3.50;;;8.60;67.20;;;;;;5012894;28;20115;-87
2021/04/17 00:37:41;;;;;;;7.07;3.78;;;8.60;68.40;;;;;;4992189;28;20499;-86
2021/04/17 00:40:07;;;;;;;6.88;3.40;;;8.60;68.00;;;;;;4974039;28;20030;-87
2021/04/17 00:42:33;;;;;;;7.82;3.42;;;8.60;68.10;;;;;;4995585;28;20065;-86
2021/04/17 00:44:59;;;;;;;7.60;3.50;;;8.60;68.20;;;;;;4963456;28;20053;-86
2021/04/17 00:47:25;;;;;;;7.22;3.40;;;8.60;68.80;;;;;;4978733;28;20903;-86
2021/04/17 00:49:51;;;;;;;8.93;3.58;;;8.50;68.40;;;;;;4994635;28;20025;-86
2021/04/17 00:52:16;;;;;;;8.05;3.63;;;8.50;68.80;;;;;;4995053;28;20030;-86
2021/04/17 00:54:42;;;;;;;7.78;3.63;;;8.40;68.60;;;;;;4963054;28;20485;-86
2021/04/17 00:57:08;;;;;;;6.95;3.65;;;8.40;68.70;;;;;;5012477;28;20072;-85
2021/04/17 00:59:34;;;;;;;6.38;3.50;;;8.40;68.90;;;;;;5012310;28;20036;-86
2021/04/17 01:02:00;;;;;;;6.35;3.20;;;8.40;69.30;;;;;;4978643;28;20049;-86
2021/04/17 01:04:37;;;;;;;6.90;3.50;;;8.40;69.60;;;;;;5012170;28;20033;-86
2021/04/17 01:07:09;;;;;;;6.80;3.15;;;8.30;69.50;;;;;;5012448;28;20390;-86
2021/04/17 01:09:49;;;;;;;8.20;3.72;;;8.30;69.20;;;;;;4994750;28;20029;-88
2021/04/17 01:12:19;;;;;;;8.18;3.10;;;8.30;69.60;;;;;;4994393;28;20056;-86
2021/04/17 01:14:47;;;;;;;7.47;3.28;;;8.30;70.10;;;;;;5001496;28;20548;-87
2021/04/17 01:17:14;;;;;;;8.57;3.42;;;8.20;70.10;;;;;;4991439;28;20028;-86
2021/04/17 01:19:39;;;;;;;6.88;3.38;;;8.20;69.90;;;;;;4978745;28;20033;-87
2021/04/17 01:22:14;;;;;;;7.70;3.70;;;8.20;70.20;;;;;;4994828;28;20029;-86
2021/04/17 01:24:46;;;;;;;6.95;3.58;;;8.20;70.30;;;;;;5012071;28;20517;-86
2021/04/17 01:27:13;;;;;;;5.70;2.80;;;8.10;69.80;;;;;;4994270;28;20120;-86
2021/04/17 01:29:41;;;;;;;7.65;3.42;;;8.10;70.60;;;;;;5011873;28;20022;-86
2021/04/17 01:32:13;;;;;;;9.35;3.30;;;8.10;70.40;;;;;;5011985;28;20026;-86
2021/04/17 01:34:44;;;;;;;9.07;4.10;;;8.10;71.00;;;;;;4994195;28;20022;-86
2021/04/17 01:37:11;;;;;;;7.15;3.50;;;8.00;70.60;;;;;;4994201;28;20042;-87
2021/04/17 01:39:39;;;;;;;7.72;3.22;;;8.00;71.00;;;;;;4978435;28;20119;-86
2021/04/17 01:42:08;;;;;;;6.95;2.95;;;8.00;71.20;;;;;;4994259;28;20029;-86
2021/04/17 01:44:38;;;;;;;7.15;3.08;;;8.00;71.00;;;;;;5003593;28;20032;-86
2021/04/17 01:47:07;;;;;;;7.57;3.05;;;7.90;71.60;;;;;;4994728;28;20444;-86
2021/04/17 01:49:37;;;;;;;3.85;2.75;;;7.90;72.10;;;;;;4994279;28;20026;-87
2021/04/17 01:52:04;;;;;;;7.90;3.38;;;7.90;72.20;;;;;;4994386;28;20034;-86
2021/04/17 01:54:34;;;;;;;7.63;3.58;;;7.90;72.10;;;;;;4994039;28;20061;-86
2021/04/17 01:57:03;;;;;;;5.03;3.00;;;7.80;72.70;;;;;;4994184;28;20095;-86
2021/04/17 01:59:32;;;;;;;6.53;3.03;;;7.80;72.20;;;;;;4994003;28;20033;-86
2021/04/17 02:01:58;;;;;;;8.40;2.92;;;7.80;72.60;;;;;;5014329;28;20105;-87
2021/04/17 02:04:23;;;;;;;6.72;3.08;;;7.80;72.30;;;;;;4981697;28;20116;-86
2021/04/17 02:06:49;;;;;;;7.57;3.33;;;7.70;72.60;;;;;;4981825;28;20036;-86
2021/04/17 02:09:15;;;;;;;6.47;2.63;;;7.70;73.10;;;;;;4996538;28;20064;-87
2021/04/17 02:11:41;;;;;;;6.20;3.30;;;7.70;73.30;;;;;;4998047;28;20359;-86
2021/04/17 02:14:07;;;;;;;5.38;2.92;;;7.70;72.90;;;;;;4998395;28;20058;-86
2021/04/17 02:17:14;;;;;;;7.38;3.40;;;7.60;73.30;;;;;;4981773;28;20064;-86
2021/04/17 02:19:56;;;;;;;6.72;3.13;;;7.60;73.80;;;;;;4904599;29;20092;-87
2021/04/17 02:22:24;;;;;;;6.32;2.97;;;7.60;73.50;;;;;;5009560;28;20069;-86
2021/04/17 02:24:52;;;;;;;6.88;2.97;;;7.60;73.80;;;;;;4981765;28;20036;-86
2021/04/17 02:27:18;;;;;;;5.78;3.20;;;7.50;74.00;;;;;;4966062;28;20026;-85
2021/04/17 02:29:47;;;;;;;6.63;2.75;;;7.50;74.20;;;;;;5015048;28;20045;-86
2021/04/17 02:32:14;;;;;;;8.98;3.20;;;7.50;74.00;;;;;;4997167;28;20597;-86
2021/04/17 02:34:41;;;;;;;5.45;3.05;;;7.50;74.20;;;;;;5015154;28;20073;-86
2021/04/17 02:37:06;;;;;;;6.93;2.92;;;7.40;74.90;;;;;;4997915;28;20044;-86
2021/04/17 02:39:32;;;;;;;6.35;2.88;;;7.40;75.00;;;;;;5015037;28;20038;-86
2021/04/17 02:41:58;;;;;;;6.60;2.97;;;7.40;75.20;;;;;;4998102;28;20022;-87
2021/04/17 02:44:23;;;;;;;4.80;2.70;;;7.40;75.20;;;;;;4981109;28;20096;-85
2021/04/17 02:46:49;;;;;;;7.18;3.10;;;7.40;75.40;;;;;;4980790;28;20026;-86
2021/04/17 02:49:15;;;;;;;8.70;4.38;;;7.30;75.60;;;;;;4997663;28;20034;-86
2021/04/17 02:51:40;;;;;;;6.10;3.00;;;7.30;75.50;;;;;;4997418;28;20470;-86
2021/04/17 02:54:06;;;;;;;7.40;3.00;;;7.30;75.70;;;;;;4977973;28;20398;-86
2021/04/17 02:56:32;;;;;;;6.10;3.03;;;7.30;75.90;;;;;;4976832;28;20040;-87
2021/04/17 02:58:58;;;;;;;6.90;2.72;;;7.20;75.90;;;;;;4981135;28;20508;-86
2021/04/17 03:01:24;;;;;;;7.13;3.22;;;7.20;76.20;;;;;;4995699;28;20049;-86
2021/04/17 03:03:49;;;;;;;9.63;3.25;;;7.20;76.60;;;;;;4996919;28;20033;-84
2021/04/17 03:06:15;;;;;;;6.88;3.00;;;7.10;76.80;;;;;;4964639;28;20049;-90
2021/04/17 03:08:41;;;;;;;11.95;3.50;;;7.10;76.80;;;;;;4980701;28;20025;-87
2021/04/17 03:11:06;;;;;;;8.18;3.97;;;7.10;77.00;;;;;;4981321;28;20026;-86
2021/04/17 03:13:32;;;;;;;7.13;3.03;;;7.00;77.50;;;;;;4977108;28;20033;-86
2021/04/17 03:15:57;;;;;;;7.75;3.10;;;7.00;78.10;;;;;;4997200;28;20056;-86
2021/04/17 03:18:23;;;;;;;7.00;3.00;;;7.00;78.20;;;;;;5014406;28;20044;-86
2021/04/17 03:20:49;;;;;;;9.77;3.30;;;7.00;78.70;;;;;;4997470;28;20066;-86
2021/04/17 03:23:15;;;;;;;11.40;3.40;;;7.00;78.80;;;;;;4994061;28;20398;-87
2021/04/17 03:25:40;;;;;;;7.43;3.20;;;7.00;78.80;;;;;;4981258;28;20394;-87
2021/04/17 03:28:07;;;;;;;7.43;3.20;;;6.90;78.80;;;;;;4997189;28;20034;-87
2021/04/17 03:30:33;;;;;;;8.57;3.20;;;6.90;78.70;;;;;;5014309;28;20105;-88
2021/04/17 03:33:00;;;;;;;6.82;2.78;;;6.90;78.80;;;;;;4981055;28;20120;-87
2021/04/17 03:35:27;;;;;;;10.27;3.53;;;6.80;79.00;;;;;;4980163;28;20050;-87
2021/04/17 03:37:52;;;;;;;7.03;3.20;;;6.80;79.00;;;;;;5014478;28;20042;-87
2021/04/17 03:40:19;;;;;;;7.95;3.45;;;6.80;79.30;;;;;;4980574;28;20376;-91
2021/04/17 03:42:45;;;;;;;8.45;3.30;;;6.80;79.50;;;;;;4996823;28;20056;-88
2021/04/17 03:45:12;;;;;;;10.63;3.83;;;6.80;79.50;;;;;;4996714;28;20033;-87
2021/04/17 03:47:37;;;;;;;7.32;3.10;;;6.70;79.60;;;;;;4961278;28;20034;-87
2021/04/17 03:50:06;;;;;;;6.85;3.25;;;6.70;80.10;;;;;;5004563;28;20030;-88
2021/04/17 03:52:31;;;;;;;5.82;2.63;;;6.70;80.40;;;;;;4995661;28;20073;-88
2021/04/17 03:54:57;;;;;;;6.95;2.80;;;6.70;80.70;;;;;;4980626;28;20030;-87
2021/04/17 03:57:23;;;;;;;7.82;3.05;;;6.70;81.10;;;;;;4995822;28;20133;-87
2021/04/17 03:59:48;;;;;;;8.07;2.85;;;6.60;81.20;;;;;;4979993;28;20034;-87
2021/04/17 04:02:14;;;;;;;9.07;2.85;;;6.70;81.40;;;;;;4960704;28;20026;-88
2021/04/17 04:04:40;;;;;;;6.97;2.88;;;6.60;81.50;;;;;;4976384;28;20031;-86
2021/04/17 04:07:06;;;;;;;5.65;2.40;;;6.60;81.60;;;;;;5003401;28;20077;-87
2021/04/17 04:09:32;;;;;;;5.90;2.65;;;6.60;81.90;;;;;;4980535;28;20018;-86
2021/04/17 04:11:58;;;;;;;5.90;2.78;;;6.60;82.00;;;;;;4980094;28;20034;-86
2021/04/17 04:14:25;;;;;;;7.82;2.92;;;6.60;82.00;;;;;;4995787;28;20034;-88
2021/04/17 04:16:54;;;;;;;6.40;2.90;;;6.60;82.30;;;;;;4995668;28;20383;-86
2021/04/17 04:19:19;;;;;;;6.68;2.53;;;6.60;82.30;;;;;;4996480;28;20026;-86
2021/04/17 04:21:45;;;;;;;6.43;2.78;;;6.50;82.20;;;;;;4996267;28;20037;-86
2021/04/17 04:24:11;;;;;;;7.22;2.42;;;6.50;82.50;;;;;;4994440;28;20105;-86
2021/04/17 04:26:37;;;;;;;6.93;3.03;;;6.50;82.70;;;;;;4995829;28;20040;-87
2021/04/17 04:29:03;;;;;;;7.07;2.83;;;6.40;82.90;;;;;;4979928;28;20482;-86
2021/04/17 04:31:29;;;;;;;6.40;2.70;;;6.50;83.20;;;;;;5013664;28;20018;-86
2021/04/17 04:33:54;;;;;;;6.80;3.00;;;6.50;83.40;;;;;;4980045;28;20425;-86
2021/04/17 04:36:20;;;;;;;7.47;2.63;;;6.40;83.50;;;;;;5013355;28;20050;-87
2021/04/17 04:38:46;;;;;;;5.40;2.58;;;6.50;83.70;;;;;;4995790;28;20034;-86
2021/04/17 04:41:11;;;;;;;7.95;2.80;;;6.50;83.70;;;;;;4995680;28;20517;-87
2021/04/17 04:43:38;;;;;;;6.07;2.83;;;6.40;83.80;;;;;;4979317;28;20033;-87
2021/04/17 04:46:03;;;;;;;6.32;2.90;;;6.40;84.10;;;;;;4996371;28;20054;-87
2021/04/17 04:48:29;;;;;;;8.90;2.80;;;6.40;84.10;;;;;;5013754;28;20033;-87
2021/04/17 04:50:55;;;;;;;7.72;3.78;;;6.40;84.30;;;;;;5012892;28;20117;-86
2021/04/17 04:53:21;;;;;;;5.60;2.85;;;6.40;84.40;;;;;;4979764;28;20394;-87
2021/04/17 04:55:46;;;;;;;8.18;3.25;;;6.30;84.50;;;;;;4995793;28;20370;-87
2021/04/17 04:58:12;;;;;;;8.23;2.80;;;6.30;84.60;;;;;;5012834;28;20092;-87
2021/04/17 05:00:37;;;;;;;5.95;2.75;;;6.40;84.90;;;;;;4995576;28;20030;-87
2021/04/17 05:03:03;;;;;;;5.20;2.35;;;6.30;85.00;;;;;;4962728;28;20044;-86
2021/04/17 05:05:29;;;;;;;7.05;2.90;;;6.30;85.00;;;;;;4995391;28;20026;-86
2021/04/17 05:07:54;;;;;;;5.97;2.70;;;6.30;85.00;;;;;;4962651;28;20037;-87
2021/04/17 05:10:20;;;;;;;7.05;2.67;;;6.30;85.20;;;;;;4979526;28;20672;-87
2021/04/17 05:12:46;;;;;;;8.90;3.17;;;6.30;85.20;;;;;;4979325;28;20037;-87
2021/04/17 05:15:12;;;;;;;6.00;2.85;;;6.30;85.40;;;;;;5013161;28;20032;-88
2021/04/17 05:17:37;;;;;;;6.10;2.95;;;6.30;85.50;;;;;;4995363;28;20014;-87
2021/04/17 05:20:04;;;;;;;5.35;3.22;;;6.30;85.70;;;;;;4995221;28;20490;-87
2021/04/17 05:22:30;;;;;;;9.70;3.63;;;6.30;85.90;;;;;;4975674;28;20056;-87
2021/04/17 05:24:55;;;;;;;4.10;2.30;;;6.30;86.00;;;;;;4955436;28;20061;-86
2021/04/17 05:27:21;;;;;;;4.30;2.22;;;6.30;86.10;;;;;;4995098;28;20045;-87
2021/04/17 05:29:47;;;;;;;6.03;2.72;;;6.30;86.30;;;;;;4978998;28;20029;-87
2021/04/17 05:32:12;;;;;;;5.90;2.47;;;6.30;86.40;;;;;;4978719;28;20029;-87
2021/04/17 05:34:38;;;;;;;5.50;2.70;;;6.30;86.60;;;;;;4994732;28;20394;-88
2021/04/17 05:37:04;;;;;;;5.43;2.60;;;6.30;86.70;;;;;;4995670;28;20038;-87
2021/04/17 05:39:30;;;;;;;6.95;2.40;;;6.30;86.90;;;;;;4978875;28;20093;-86
2021/04/17 05:41:56;;;;;;;6.03;2.67;;;6.30;87.00;;;;;;5013539;28;20517;-86
2021/04/17 05:44:22;;;;;;;6.88;2.88;;;6.30;87.30;;;;;;5012687;28;20145;-86
2021/04/17 05:46:48;;;;;;;4.53;2.28;;;6.40;87.40;;;;;;4993718;28;20033;-87
2021/04/17 05:49:14;;;;;;;5.13;2.40;;;6.40;87.40;;;;;;5012737;28;20038;-87
2021/04/17 05:51:42;;;;;;;6.40;2.35;;;6.40;88.00;;;;;;4995047;28;20022;-87
2021/04/17 05:54:09;;;;;;;5.20;2.20;;;6.40;87.50;;;;;;4995243;28;20038;-86
2021/04/17 05:56:35;;;;;;;5.72;2.83;;;6.50;87.60;;;;;;4995273;28;20026;-87
2021/04/17 05:59:01;;;;;;;7.45;2.72;;;6.50;87.60;;;;;;5012662;28;20397;-87
2021/04/17 06:01:27;;;;;;;8.60;2.30;;;6.50;87.60;;;;;;4963083;28;20038;-87
2021/04/17 06:03:53;;;;;;;4.20;2.10;;;6.50;87.60;;;;;;4994676;28;20026;-87
2021/04/17 06:06:20;;;;;;;6.72;2.35;;;6.60;87.60;;;;;;4975613;28;20027;-87
2021/04/17 06:08:45;;;;;;;4.85;2.45;;;6.60;87.60;;;;;;5008813;28;20030;-88
2021/04/17 06:11:11;;;;;;;4.18;2.03;;;6.60;87.60;;;;;;4959113;28;20023;-87
2021/04/17 06:13:37;;;;;;;4.25;2.15;;;6.60;87.70;;;;;;4990094;28;20025;-87
2021/04/17 06:16:05;;;;;;;5.28;2.60;;;6.60;87.70;;;;;;4979280;28;20041;-86
2021/04/17 06:18:32;;;;;;;4.88;2.30;;;6.70;87.70;;;;;;4995201;28;20034;-88
2021/04/17 06:20:57;;;;;;;3.33;2.00;;;6.70;87.70;;;;;;4978096;28;20034;-87
2021/04/17 06:23:23;;;;;;;5.32;2.13;;;6.70;87.60;;;;;;5012361;28;20049;-87
2021/04/17 06:25:49;;;;;;;6.20;2.05;;;6.80;87.70;;;;;;5011966;28;20479;-87
2021/04/17 06:28:16;;;;;;;7.88;2.20;;;6.80;87.60;;;;;;4994875;28;20107;-87
2021/04/17 06:30:42;;;;;;;4.13;1.90;;;6.80;87.60;;;;;;4978297;28;20030;-87
2021/04/17 06:33:09;;;;;;;5.63;2.00;;;6.80;87.60;;;;;;4978382;28;20231;-87
2021/04/17 06:35:36;;;;;;;3.65;1.98;;;6.90;87.60;;;;;;4994244;28;20046;-88
2021/04/17 06:38:02;;;;;;;5.22;2.10;;;6.90;87.60;;;;;;4977974;28;20036;-87
2021/04/17 06:40:27;;;;;;;5.05;2.17;;;7.00;87.70;;;;;;4994549;28;20038;-88
2021/04/17 06:42:56;;;;;;;5.10;1.92;;;7.00;87.70;;;;;;4994094;28;20038;-87
2021/04/17 06:45:25;;;;;;;5.13;2.25;;;7.10;87.70;;;;;;4995104;28;20021;-87
2021/04/17 06:47:51;;;;;;;5.68;2.00;;;7.10;87.50;;;;;;5014145;28;20385;-87
2021/04/17 06:50:17;;;;;;;5.32;2.00;;;7.10;87.50;;;;;;4997138;28;20025;-87
2021/04/17 06:52:45;;;;;;;5.35;1.73;;;7.20;87.50;;;;;;4981556;28;20116;-88
2021/04/17 06:55:12;;;;;;;4.07;1.92;;;7.20;87.30;;;;;;4982318;28;20469;-87
2021/04/17 06:57:40;;;;;;;5.30;2.47;;;7.30;87.50;;;;;;5015505;28;20037;-87
2021/04/17 07:00:12;;;;;;;3.67;1.58;;;7.30;87.40;;;;;;5015433;28;20046;-87
2021/04/17 07:02:39;;;;;;;3.80;1.73;;;7.40;87.40;;;;;;5011927;28;20021;-88
2021/04/17 07:05:05;;;;;;;4.25;1.88;;;7.50;87.20;;;;;;5015707;28;20030;-87
2021/04/17 07:07:32;;;;;;;3.92;1.52;;;7.60;87.20;;;;;;4981382;28;20335;-87
2021/04/17 07:09:58;;;;;;;5.43;1.63;;;7.60;87.20;;;;;;4997795;28;20026;-86
2021/04/17 07:12:24;;;;;;;6.18;1.67;;;7.70;87.10;;;;;;4997282;28;20467;-87
2021/04/17 07:14:52;;;;;;;4.68;1.48;;;7.80;87.10;;;;;;5015057;28;20022;-86
2021/04/17 07:17:20;;;;;;;3.90;1.35;;;7.90;87.00;;;;;;5013890;28;20026;-88
2021/04/17 07:19:53;;;;;;;4.35;1.80;;;7.90;86.90;;;;;;4993185;28;20398;-87
2021/04/17 07:22:26;;;;;;;4.32;1.52;;;8.00;86.80;;;;;;4994335;28;20049;-87
2021/04/17 07:24:54;;;;;;;4.38;1.60;;;8.10;86.30;;;;;;5009370;28;20026;-88
2021/04/17 07:27:41;;;;;;;3.47;1.60;;;8.20;86.10;;;;;;4997437;28;20033;-89
2021/04/17 07:30:16;;;;;;;2.88;1.23;;;8.30;86.00;;;;;;4995229;28;20022;-89
2021/04/17 07:32:42;;;;;;;4.22;1.40;;;8.40;85.80;;;;;;5013315;28;20026;-87
2021/04/17 07:35:14;;;;;;;4.53;1.50;;;8.50;85.80;;;;;;4990289;28;20129;-87
2021/04/17 07:37:42;;;;;;;2.92;1.40;;;8.60;85.50;;;;;;5012877;28;20037;-87
2021/04/17 07:40:14;;;;;;;3.83;1.30;;;8.70;85.20;;;;;;4982644;28;20029;-89
2021/04/17 07:42:39;;;;;;;3.95;1.65;;;8.80;84.90;;;;;;5008006;28;20019;-88
2021/04/17 07:45:20;;;;;;;7.13;1.83;;;8.90;84.70;;;;;;4991157;28;20116;-89
2021/04/17 07:47:46;;;;;;;3.72;1.23;;;9.00;84.40;;;;;;4994553;28;20038;-87
2021/04/17 07:50:12;;;;;;;4.38;2.10;;;9.10;84.00;;;;;;5007587;28;20114;-90
2021/04/17 07:52:38;;;;;;;4.20;1.30;;;9.30;83.80;;;;;;4973747;28;20109;-89
2021/04/17 07:55:07;;;;;;;3.60;1.50;;;9.40;83.50;;;;;;4987814;28;20423;-86
2021/04/17 07:57:37;;;;;;;2.72;1.38;;;9.50;83.20;;;;;;4985065;28;20038;-86
2021/04/17 08:00:09;;;;;;;3.33;1.33;;;9.60;82.70;;;;;;4992113;28;20033;-86
2021/04/17 08:02:36;;;;;;;4.70;1.40;;;9.70;82.20;;;;;;4975535;28;20054;-87
2021/04/17 08:05:03;;;;;;;3.85;1.35;;;9.80;82.30;;;;;;4990984;28;20048;-86
2021/04/17 08:07:29;;;;;;;3.47;1.23;;;9.90;81.90;;;;;;4997575;28;20022;-86
2021/04/17 08:09:57;;;;;;;2.28;1.38;;;10.00;81.60;;;;;;4990281;28;20017;-87
2021/04/17 08:12:24;;;;;;;2.30;1.10;;;10.10;81.10;;;;;;4990430;28;20061;-87
2021/04/17 08:14:50;;;;;;;2.65;1.30;;;10.30;80.60;;;;;;4986467;28;20137;-88
2021/04/17 08:17:16;;;;;;;2.97;1.50;;;10.40;80.00;;;;;;4992575;28;20112;-88
2021/04/17 08:19:41;;;;;;;3.85;1.50;;;10.50;80.00;;;;;;4984403;28;20026;-87
2021/04/17 08:22:07;;;;;;;4.88;1.40;;;10.60;79.80;;;;;;4972074;28;20025;-87
2021/04/17 08:24:33;;;;;;;4.25;1.30;;;10.70;79.30;;;;;;4976210;28;20022;-86
2021/04/17 08:27:01;;;;;;;3.72;1.10;;;10.80;78.50;;;;;;4955332;28;20426;-87
2021/04/17 08:29:48;;;;;;;2.08;0.93;;;10.90;78.20;;;;;;4991856;28;20022;-88
2021/04/17 08:32:31;;;;;;;3.55;1.33;;;11.10;77.50;;;;;;4987230;28;20033;-88
2021/04/17 08:35:15;;;;;;;4.00;1.60;;;11.20;77.60;;;;;;4994568;28;20454;-88
2021/04/17 08:40:51;;;;;;;3.50;1.50;;;11.50;76.40;;;;;;5009992;28;20033;-87
2021/04/17 08:43:17;;;;;;;4.20;1.20;;;11.60;75.00;;;;;;4939936;28;20041;-87
2021/04/17 08:46:05;;;;;;;4.35;1.23;;;11.70;74.20;;;;;;5010907;28;20026;-87
2021/04/17 08:48:55;;;;;;;3.70;1.27;;;11.80;73.90;;;;;;4978089;28;20030;-87
2021/04/17 08:51:20;;;;;;;6.07;1.25;;;12.00;73.50;;;;;;4992450;28;20050;-87
2021/04/17 08:53:46;;;;;;;2.75;1.20;;;12.10;72.80;;;;;;5007994;28;20030;-88
2021/04/17 08:56:12;;;;;;;4.18;1.27;;;12.20;72.50;;;;;;4996299;28;20105;-86
2021/04/17 08:58:38;;;;;;;5.00;1.48;;;12.30;72.50;;;;;;4979838;28;20493;-87
2021/04/17 09:01:10;;;;;;;4.10;1.63;;;12.40;71.50;;;;;;4978259;28;20029;-87
2021/04/17 09:03:47;;;;;;;4.13;1.45;;;12.50;70.70;;;;;;4997062;28;20022;-87
2021/04/17 09:06:24;;;;;;;7.63;1.83;;;12.60;69.40;;;;;;5014534;28;20030;-86
2021/04/17 09:09:21;;;;;;;3.38;1.30;;;12.80;69.40;;;;;;4995598;28;20029;-87
2021/04/17 09:11:52;;;;;;;3.83;1.25;;;12.90;69.00;;;;;;4988366;28;20022;-86
2021/04/17 09:14:26;;;;;;;3.27;1.30;;;13.00;67.60;;;;;;4996500;28;20024;-87
2021/04/17 09:16:54;;;;;;;3.08;1.40;;;13.10;68.00;;;;;;5014388;28;20022;-87
2021/04/17 09:19:38;;;;;;;2.90;1.38;;;13.20;67.90;;;;;;4997325;28;20537;-86
2021/04/17 09:22:26;;;;;;;2.95;1.20;;;13.30;67.80;;;;;;4995724;28;20380;-86
2021/04/17 09:24:52;;;;;;;2.25;1.25;;;13.40;67.20;;;;;;4996190;28;20026;-86
2021/04/17 09:27:28;;;;;;;4.80;1.80;;;13.50;66.90;;;;;;4978972;28;20073;-87
2021/04/17 09:30:13;;;;;;;6.45;1.50;;;13.60;65.70;;;;;;5012599;28;20107;-83
2021/04/17 09:32:47;;;;;;;8.00;2.17;;;13.70;64.80;;;;;;4986975;28;20022;-83
2021/04/17 09:35:19;;;;;;;4.40;1.70;;;13.80;65.30;;;;;;4986863;28;20097;-83
2021/04/17 09:37:48;;;;;;;2.97;1.50;;;13.90;64.00;;;;;;4987594;28;20443;-83
2021/04/17 09:40:14;;;;;;;1.92;1.20;;;14.00;63.60;;;;;;4987950;28;20022;-90
2021/04/17 09:42:40;;;;;;;3.03;1.30;;;14.10;62.70;;;;;;4990730;28;20089;-83
2021/04/17 09:45:10;;;;;;;3.75;1.58;;;14.20;61.80;;;;;;4990090;28;20045;-84
2021/04/17 09:47:37;;;;;;;5.75;1.70;;;14.30;61.00;;;;;;4989100;28;20023;-84
2021/04/17 09:50:20;;;;;;;4.03;1.40;;;14.40;60.70;;;;;;4987637;28;20026;-83
2021/04/17 09:52:46;;;;;;;3.92;1.83;;;14.50;60.80;;;;;;4986948;28;20108;-85
2021/04/17 09:55:12;;;;;;;5.95;2.00;;;14.60;58.00;;;;;;4990936;28;20042;-83
2021/04/17 09:57:47;;;;;;;3.38;1.65;;;14.70;59.00;;;;;;4970728;28;20035;-85
2021/04/17 10:00:14;;;;;;;3.28;1.60;;;14.80;59.90;;;;;;4989749;28;20483;-84
2021/04/17 10:02:47;;;;;;;4.68;1.75;;;14.90;58.60;;;;;;4990779;28;20475;-85
2021/04/17 10:05:15;;;;;;;5.43;1.55;;;15.00;56.00;;;;;;5009083;28;20030;-85
2021/04/17 10:07:50;;;;;;;4.97;1.80;;;15.20;57.20;;;;;;4993603;28;20034;-84
2021/04/17 10:10:16;;;;;;;3.95;1.50;;;15.30;58.40;;;;;;4977809;28;20121;-84
2021/04/17 10:12:53;;;;;;;5.25;2.13;;;15.40;58.50;;;;;;4992541;28;20102;-84
2021/04/17 10:15:23;;;;;;;4.38;2.15;;;15.50;57.90;;;;;;4991211;28;20022;-86
2021/04/17 10:18:08;;;;;;;5.13;2.20;;;15.60;56.80;;;;;;4992430;28;20478;-84
2021/04/17 10:20:34;;;;;;;4.22;1.73;;;15.70;57.40;;;;;;4995211;28;20072;-85
2021/04/17 10:23:02;;;;;;;3.75;1.80;;;15.80;57.20;;;;;;4995536;28;20101;-86
2021/04/17 10:25:45;;;;;;;5.18;2.40;;;15.90;56.90;;;;;;4995955;28;20386;-85
2021/04/17 10:28:13;;;;;;;5.47;2.22;;;16.00;56.50;;;;;;4982470;28;20033;-85
2021/04/17 10:30:39;;;;;;;4.90;2.08;;;16.10;56.40;;;;;;4996730;28;20046;-85
2021/04/17 10:33:22;;;;;;;6.45;2.38;;;16.20;56.90;;;;;;4962103;28;20054;-85
2021/04/17 10:35:49;;;;;;;4.22;1.80;;;16.20;54.20;;;;;;5000097;28;20053;-84
2021/04/17 10:38:29;;;;;;;5.72;1.98;;;16.20;54.20;;;;;;4981889;28;20077;-85
2021/04/17 10:40:57;;;;;;;4.53;2.05;;;16.20;54.00;;;;;;4997950;28;20022;-86
2021/04/17 10:43:23;;;;;;;5.07;1.90;;;16.20;54.50;;;;;;4998393;28;20025;-83
2021/04/17 10:45:53;;;;;;;4.93;2.40;;;16.20;54.90;;;;;;4997369;28;20107;-82
2021/04/17 10:48:24;;;;;;;4.82;2.20;;;16.20;53.90;;;;;;5015262;28;20065;-82
2021/04/17 10:51:03;;;;;;;5.33;1.87;;;16.20;54.60;;;;;;4996007;28;20072;-84
2021/04/17 10:53:31;;;;;;;6.32;2.17;;;16.30;55.00;;;;;;5013636;28;20018;-84
2021/04/17 10:56:08;;;;;;;5.15;2.38;;;16.40;55.30;;;;;;4994357;28;20030;-84
2021/04/17 10:58:35;;;;;;;6.93;2.60;;;16.50;54.30;;;;;;4994686;28;20037;-83
2021/04/17 11:01:25;;;;;;;4.70;1.90;;;16.60;53.50;;;;;;4965826;28;20403;-83
2021/04/17 11:03:53;;;;;;;4.15;2.13;;;16.70;53.50;;;;;;4992480;28;20042;-83
2021/04/17 11:06:20;;;;;;;5.35;2.13;;;16.70;53.30;;;;;;5009303;28;20021;-83
2021/04/17 11:08:48;;;;;;;8.45;2.80;;;16.80;53.10;;;;;;5007131;28;20534;-83
2021/04/17 11:11:23;;;;;;;7.55;2.22;;;16.80;52.40;;;;;;4999718;28;20030;-83
2021/04/17 11:13:57;;;;;;;5.30;2.45;;;16.80;52.20;;;;;;4989953;28;20037;-83
2021/04/17 11:16:45;;;;;;;4.43;1.75;;;16.90;52.00;;;;;;5013364;28;20033;-83
2021/04/17 11:19:25;;;;;;;5.68;1.95;;;16.90;52.10;;;;;;5013396;28;20030;-83
2021/04/17 11:22:10;;;;;;;5.20;2.22;;;16.90;52.30;;;;;;5011460;28;20100;-84
2021/04/17 11:24:37;;;;;;;7.30;2.28;;;17.00;51.90;;;;;;4995414;28;20038;-84
2021/04/17 11:27:03;;;;;;;8.63;2.88;;;17.00;51.30;;;;;;5012130;28;20545;-83
2021/04/17 11:29:29;;;;;;;6.88;2.40;;;17.00;51.70;;;;;;4995727;28;20034;-84
2021/04/17 11:31:55;;;;;;;6.88;2.08;;;17.00;51.80;;;;;;4979332;28;20405;-84
2021/04/17 11:34:21;;;;;;;3.35;1.70;;;17.00;52.30;;;;;;5010832;28;20038;-84
2021/04/17 11:36:46;;;;;;;6.18;1.90;;;17.00;51.00;;;;;;4979229;28;20058;-86
2021/04/17 11:39:13;;;;;;;5.22;1.92;;;17.00;50.20;;;;;;4996668;28;20042;-86
2021/04/17 11:41:39;;;;;;;5.32;2.00;;;17.00;50.80;;;;;;4987952;28;20033;-91
2021/04/17 11:44:05;;;;;;;5.80;2.10;;;17.10;50.70;;;;;;4966270;28;20065;-88
2021/04/17 11:46:31;;;;;;;6.97;2.30;;;17.10;50.70;;;;;;4982643;28;20026;-89
2021/04/17 11:48:57;;;;;;;4.00;1.88;;;17.20;50.50;;;;;;4996873;28;20022;-89
2021/04/17 11:51:22;;;;;;;6.38;2.22;;;17.30;51.70;;;;;;4979031;28;20034;-88
2021/04/17 11:53:48;;;;;;;4.82;2.08;;;17.40;52.20;;;;;;4979203;28;20030;-90
2021/04/17 11:56:14;;;;;;;5.47;2.80;;;17.50;50.10;;;;;;5002947;28;20034;-91
2021/04/17 11:58:40;;;;;;;4.53;2.30;;;17.50;48.80;;;;;;4998350;28;20044;-89
2021/04/17 12:01:06;;;;;;;5.88;2.35;;;17.50;49.80;;;;;;4982211;28;20069;-91
2021/04/17 12:03:32;;;;;;;4.18;2.13;;;17.50;50.20;;;;;;5017437;28;20030;-95
2021/04/17 12:05:58;;;;;;;6.60;2.20;;;17.60;50.70;;;;;;4983631;28;20506;-88
2021/04/17 12:08:24;;;;;;;7.18;1.90;;;17.70;50.20;;;;;;4983183;28;20053;-90
2021/04/17 12:10:51;;;;;;;5.43;2.17;;;17.70;50.70;;;;;;4999382;28;20072;-89
2021/04/17 12:13:17;;;;;;;4.68;2.20;;;17.80;50.00;;;;;;4982000;28;20584;-92
2021/04/17 12:15:48;;;;;;;4.22;1.85;;;17.80;49.20;;;;;;5004260;28;20030;-89
2021/04/17 12:18:15;;;;;;;5.80;2.40;;;17.80;49.40;;;;;;5017935;28;20394;-94
2021/04/17 12:20:41;;;;;;;6.63;2.45;;;17.80;49.20;;;;;;4999751;28;20493;-89
2021/04/17 12:23:07;;;;;;;4.32;1.65;;;17.80;48.90;;;;;;5000847;28;20014;-91
2021/04/17 12:25:33;;;;;;;6.05;2.10;;;17.80;49.90;;;;;;5001910;28;20037;-96
2021/04/17 12:27:59;;;;;;;4.53;2.20;;;17.90;49.60;;;;;;5000482;28;20120;-92
2021/04/17 12:30:25;;;;;;;5.03;2.33;;;18.00;49.90;;;;;;5001278;28;20026;-92
2021/04/17 12:32:52;;;;;;;5.63;1.75;;;18.10;49.00;;;;;;5016490;28;20577;-92
2021/04/17 12:35:20;;;;;;;6.10;1.90;;;18.20;48.30;;;;;;4998600;28;20018;-92
2021/04/17 12:37:46;;;;;;;5.32;2.55;;;18.30;48.60;;;;;;4982906;28;20141;-93
2021/04/17 12:40:12;;;;;;;6.60;2.42;;;18.40;47.80;;;;;;4998635;28;20467;-91
2021/04/17 12:42:38;;;;;;;4.95;2.13;;;18.40;49.00;;;;;;5016824;28;20018;-91
2021/04/17 12:45:06;;;;;;;8.82;2.40;;;18.50;47.10;;;;;;4998832;28;20461;-87
2021/04/17 12:47:31;;;;;;;4.63;1.92;;;18.50;47.70;;;;;;4973686;28;20026;-85
2021/04/17 12:49:57;;;;;;;24.23;3.63;;;18.60;48.10;;;;;;4977423;28;20478;-90
2021/04/17 12:52:23;;;;;;;5.72;2.45;;;18.70;48.70;;;;;;4980623;28;20027;-92
2021/04/17 12:54:48;;;;;;;5.28;2.25;;;18.80;49.00;;;;;;4999211;28;20120;-92
2021/04/17 12:57:14;;;;;;;5.00;2.45;;;18.90;48.70;;;;;;4967194;28;20041;-91
2021/04/17 12:59:40;;;;;;;6.72;2.08;;;19.00;48.10;;;;;;4983106;28;20030;-89
2021/04/17 13:02:07;;;;;;;4.90;2.40;;;19.10;50.40;;;;;;4980957;28;20493;-89